Terminal Aerodrome Forecast
Issued by NWS

Home | Current Version | Previous Version | Text Only | Print | Product List | Glossary On
Versions: 1 2 3 4 5 6 7 8 9 10 11 12 13 14 15 16 17 18 19
515
FTUS41 KGYX 260913 AAB
TAFAUG
TAF AMD
KAUG 260913Z 2609/2706 VRB02KT 1/4SM FG OVC002
     FM261200 29006KT P6SM SCT100
     FM261500 31008KT P6SM SCT040
     FM270000 30004KT P6SM SKC=

USA.gov is the U.S. government's official web portal to all federal, state and local government web resources and services.